Wednesday, October 18, 2017, 3:41 AM EDT
Back to Local

KBED, Bedford Hanscom Field

Location: Concord, MA, United States Lat: 42.467
Local Time: 3:41 AM EDT ( 7:41 GMT) Lon: -71.3
Time Zone: US/Eastern Elev: 134 ft

Show me the last for .
Show Coded

Time T Td Feel RH Dir Speed Gust Alt SLP Vis Weather Sky Remarks
2017-10-18 02:56 45 37 40 73 200° 9 - 30.18 30.22 10 CLR None
2017-10-18 01:56 45 36 40 70 210° 10 - 30.19 30.23 10 CLR 6-hr Min Temp (2am): 42.1°F
6-hr Max Temp (2am): 46.0°F
2017-10-18 00:56 45 35 41 68 210° 8 - 30.21 30.25 10 CLR 24-hr Min Temp (1am): 30.0°F
24-hr Max Temp (1am): 57.0°F
2017-10-17 23:56 44 34 42 67 210° 5 - 30.22 30.26 10 CLR None
2017-10-17 22:56 43 32 40 64 210° 5 - 30.22 30.26 10 CLR None
2017-10-17 21:56 44 33 41 65 220° 6 - 30.23 30.27 10 CLR None
2017-10-17 20:56 45 33 42 62 210° 6 - 30.22 30.27 10 CLR None
2017-10-17 19:56 41 32 - 70 - Calm - 30.21 30.26 10 CLR 6-hr Min Temp (8pm): 41.0°F
6-hr Max Temp (8pm): 57.0°F
2017-10-17 18:56 47 31 45 53 210° 5 - 30.20 30.25 10 CLR None
2017-10-17 17:56 52 31 - 44 200° 3 - 30.19 30.23 10 CLR None
2017-10-17 16:56 56 26 - 31 230° 7 - 30.19 30.23 10 CLR None
2017-10-17 15:56 56 24 - 28 Variable 6 - 30.20 30.24 10 CLR None
2017-10-17 14:56 57 24 - 27 - Calm - 30.21 30.26 10 CLR None
2017-10-17 13:56 55 25 - 31 - Calm - 30.23 30.27 10 CLR 6-hr Min Temp (2pm): 33.1°F
6-hr Max Temp (2pm): 55.9°F
2017-10-17 12:56 53 25 - 33 Variable 6 - 30.25 30.30 10 CLR None
2017-10-17 11:56 51 27 - 38 Variable 3 - 30.28 30.32 10 CLR None
2017-10-17 10:56 49 27 48 42 30° 3 - 30.28 30.32 10 CLR None
2017-10-17 09:56 47 29 42 49 310° 10 - 30.29 30.34 10 CLR None
2017-10-17 08:56 42 32 38 67 330° 7 - 30.29 30.33 10 CLR None
2017-10-17 07:56 33 30 - 88 - Calm - 30.28 30.32 10 CLR 6-hr Min Temp (8am): 30.0°F
6-hr Max Temp (8am): 35.1°F
2017-10-17 06:56 31 27 - 85 - Calm - 30.26 30.30 10 CLR None
2017-10-17 05:56 32 28 - 85 - Calm - 30.24 30.28 10 CLR None
2017-10-17 04:56 34 29 - 81 - Calm - 30.22 30.27 10 CLR None
2017-10-17 03:56 32 28 26 85 300° 6 - 30.20 30.25 10 CLR None

Support USWX by starting your Amazon purchase here.